Central, Alabama
Current Conditions -  °F | °C
As of 2:15 AM on Monday 26 Jan 2015 (Local Time) from KALX Reporting Station
Broken Clouds Broken Clouds  
Wind Chill: 47°   Ceiling: 8500
Heat Index: 49°   Visibility: 10mi
Dew Point: 42°   Wind: 6mph
Humidity: 76%   Direction: 280°W
Pressure: 29.82"   Gusts: NA
Location:  32.6638°N, 86.0276°W
Report Text: KALX 260815Z AUTO 28005KT 10SM SCT050 BKN085 10/06 A2982 RMK AO2 T00950055
Loading
Personal Weather Stations






























Interactive Weather Map New forecast layout! Learn more

10-Day Weather Forecast

Advertisements
Track Severe Weather on mobile